Mount Lebanon, Pennsylvania
Current Conditions -  °F | °C
As of 8:32 PM on Wednesday 26 Nov 2014 (Local Time) from KAGC Reporting Station
Haze Haze  
Wind Chill: 26°   Ceiling: 500
Heat Index: 32°   Visibility: 1.7mi
Dew Point: 29°   Wind: 6mph
Humidity: 88%   Direction: 320°NW
Pressure: 29.99"   Gusts: NA
Location:  40.38°N, 80.04°W
Report Text: KAGC 270132Z 32005KT 1 3/4SM BR OVC005 00/M02 A2999 RMK AO2 T00001017
Loading
Personal Weather Stations






























Interactive Weather Map New forecast layout! Learn more

10-Day Weather Forecast

Advertisements
Track Severe Weather on mobile